Time;durP1;ratioP1;P1;durP2;ratioP2;P2;SDS_P1;SDS_P2;PMS_P1;PMS_P2;Temp;Humidity;BMP_temperature;BMP_pressure;BME280_temperature;BME280_humidity;BME280_pressure;Samples;Min_cycle;Max_cycle;Signal;HPM_P1;HPM_P2
2023/09/18 00:00:11;;;;;;;2.70;2.17;;;19.30;99.90;;;19.25;100.00;96660.09;5014861;28;20095;-39
2023/09/18 00:02:38;;;;;;;2.50;2.30;;;19.30;99.90;;;19.35;100.00;96673.56;5015535;28;20521;-39
2023/09/18 00:05:04;;;;;;;3.55;2.30;;;19.30;99.90;;;19.37;100.00;96668.94;5012667;28;20056;-39
2023/09/18 00:07:29;;;;;;;2.63;2.20;;;19.30;99.90;;;19.35;100.00;96660.19;5014437;28;20044;-40
2023/09/18 00:09:55;;;;;;;3.22;2.30;;;19.30;99.90;;;19.32;100.00;96664.97;5014239;28;20045;-39
2023/09/18 00:12:21;;;;;;;3.78;2.70;;;19.30;99.90;;;19.29;100.00;96671.44;5009730;28;20037;-39
2023/09/18 00:14:50;;;;;;;3.33;2.20;;;19.30;99.90;;;19.31;100.00;96668.59;5013229;28;20029;-38
2023/09/18 00:17:16;;;;;;;3.10;2.20;;;19.30;99.90;;;19.29;100.00;96663.41;5010829;28;20116;-39
2023/09/18 00:19:43;;;;;;;2.65;2.20;;;19.30;99.90;;;19.32;100.00;96655.09;5013539;28;20037;-39
2023/09/18 00:22:09;;;;;;;4.80;2.33;;;19.30;99.90;;;19.32;100.00;96659.63;5013078;28;20053;-39
2023/09/18 00:24:34;;;;;;;4.38;2.78;;;19.30;99.90;;;19.31;100.00;96641.88;5011631;28;20500;-39
2023/09/18 00:27:00;;;;;;;3.25;2.33;;;19.30;99.90;;;19.29;100.00;96638.47;5015425;28;20401;-39
2023/09/18 00:29:26;;;;;;;2.97;2.50;;;19.30;99.90;;;19.28;100.00;96637.63;5013257;28;20578;-39
2023/09/18 00:31:51;;;;;;;3.65;2.42;;;19.30;99.90;;;19.25;100.00;96630.72;5012324;28;20030;-38
2023/09/18 00:34:17;;;;;;;3.28;2.45;;;19.30;99.90;;;19.24;100.00;96631.69;5013445;28;20405;-40
2023/09/18 00:36:43;;;;;;;6.35;2.42;;;19.20;99.90;;;19.22;100.00;96627.44;5013841;28;20092;-38
2023/09/18 00:39:08;;;;;;;5.03;2.47;;;19.20;99.90;;;19.20;100.00;96622.25;5014644;28;20509;-38
2023/09/18 00:41:34;;;;;;;5.22;2.67;;;19.20;99.90;;;19.19;100.00;96617.03;5011200;28;20060;-38
2023/09/18 00:44:00;;;;;;;3.67;2.30;;;19.20;99.90;;;19.21;100.00;96621.25;5014176;28;20021;-39
2023/09/18 00:46:26;;;;;;;3.30;2.50;;;19.20;99.90;;;19.24;100.00;96626.34;5011950;28;20131;-39
2023/09/18 00:48:53;;;;;;;4.57;2.28;;;19.20;99.90;;;19.21;100.00;96605.22;5016206;28;21014;-39
2023/09/18 00:51:19;;;;;;;2.63;2.40;;;19.30;99.90;;;19.34;100.00;96614.88;5012377;28;20087;-39
2023/09/18 00:53:48;;;;;;;2.90;2.58;;;19.30;99.90;;;19.39;100.00;96615.34;5009503;28;20037;-38
2023/09/18 00:56:13;;;;;;;3.58;2.60;;;19.40;99.90;;;19.42;100.00;96613.25;5010036;28;20056;-40
2023/09/18 00:58:40;;;;;;;2.78;2.47;;;19.40;99.90;;;19.46;100.00;96608.50;5011675;28;20493;-39
2023/09/18 01:01:05;;;;;;;5.15;2.30;;;19.50;99.90;;;19.50;100.00;96609.91;5010700;28;20041;-39
2023/09/18 01:03:31;;;;;;;3.38;2.33;;;19.50;99.90;;;19.54;100.00;96611.38;5012180;28;20036;-39
2023/09/18 01:05:57;;;;;;;2.35;2.15;;;19.60;99.90;;;19.55;100.00;96606.84;5025670;28;20156;-39
2023/09/18 01:08:23;;;;;;;3.90;2.42;;;19.50;99.90;;;19.56;100.00;96604.06;5014253;28;20619;-39
2023/09/18 01:11:37;;;;;;;2.88;2.35;;;19.60;99.90;;;19.57;100.00;96600.38;5011745;28;20650;-40
2023/09/18 01:14:11;;;;;;;4.43;2.60;;;19.60;99.90;;;19.64;100.00;96601.56;4981287;28;20440;-39
2023/09/18 01:16:54;;;;;;;5.00;2.67;;;19.60;99.90;;;19.70;100.00;96592.16;5009752;28;20635;-39
2023/09/18 01:19:40;;;;;;;4.93;2.30;;;19.70;99.90;;;19.77;100.00;96588.00;5010286;28;20041;-39
2023/09/18 01:22:09;;;;;;;2.75;2.30;;;19.80;99.90;;;19.85;100.00;96608.75;4998787;28;20029;-39
2023/09/18 01:24:37;;;;;;;3.33;1.92;;;19.80;99.90;;;19.82;100.00;96604.50;5010911;28;21036;-38
2023/09/18 01:27:04;;;;;;;2.50;2.13;;;19.90;99.90;;;19.82;100.00;96583.09;5013252;28;20467;-39
2023/09/18 01:29:30;;;;;;;4.03;2.58;;;19.90;99.90;;;19.98;100.00;96614.72;5010706;28;20537;-39
2023/09/18 01:31:57;;;;;;;4.55;2.47;;;20.00;99.90;;;19.98;100.00;96606.69;5011547;28;21194;-39
2023/09/18 01:34:31;;;;;;;4.82;2.35;;;20.00;99.90;;;20.03;100.00;96611.63;5012921;28;20030;-39
2023/09/18 01:36:58;;;;;;;3.85;2.70;;;20.00;99.90;;;20.10;100.00;96607.44;5012900;28;20432;-40
2023/09/18 01:39:30;;;;;;;3.08;2.35;;;20.10;99.90;;;20.18;100.00;96604.91;5012082;28;20454;-39
2023/09/18 01:41:59;;;;;;;4.55;2.30;;;20.20;99.90;;;20.27;100.00;96605.94;5010543;28;20029;-40
2023/09/18 01:44:25;;;;;;;2.75;2.05;;;20.30;99.90;;;20.34;100.00;96614.28;5011989;28;20045;-40
2023/09/18 01:46:55;;;;;;;3.75;2.60;;;20.30;99.90;;;20.42;100.00;96627.81;5010804;28;21185;-38
2023/09/18 01:49:33;;;;;;;7.05;2.60;;;20.40;99.90;;;20.52;100.00;96679.56;5011393;28;20025;-38
2023/09/18 01:52:00;;;;;;;2.92;2.45;;;20.50;99.90;;;20.80;100.00;96671.81;5012042;28;20029;-39
2023/09/18 01:54:26;;;;;;;3.30;1.98;;;20.70;99.90;;;20.99;100.00;96660.25;5010916;28;20367;-40
2023/09/18 01:56:53;;;;;;;7.78;1.90;;;20.90;99.90;;;21.19;100.00;96644.16;5005820;28;20516;-38
2023/09/18 01:59:19;;;;;;;7.13;2.50;;;21.10;99.90;;;21.33;98.04;96633.00;5009058;28;20432;-41
2023/09/18 02:01:45;;;;;;;7.95;2.33;;;21.20;99.90;;;21.44;95.02;96640.91;5009266;28;20029;-39
2023/09/18 02:04:11;;;;;;;8.20;2.20;;;21.30;99.90;;;21.58;94.50;96630.78;5012127;28;20034;-39
2023/09/18 02:06:36;;;;;;;5.70;2.03;;;21.50;99.90;;;21.57;100.00;96610.28;5009485;28;20493;-39
2023/09/18 02:09:03;;;;;;;3.42;1.92;;;21.50;99.90;;;21.51;100.00;96591.09;5014114;28;20022;-40
2023/09/18 02:11:29;;;;;;;8.20;2.10;;;21.40;99.90;;;21.38;100.00;96576.28;5012766;28;20026;-39
2023/09/18 02:13:56;;;;;;;5.03;1.88;;;21.30;99.90;;;21.30;100.00;96555.53;5007255;28;20030;-40
2023/09/18 02:16:22;;;;;;;7.53;2.30;;;21.20;99.90;;;21.06;100.00;96502.38;5011309;28;20032;-42
2023/09/18 02:18:48;;;;;;;4.55;1.70;;;21.10;99.90;;;20.91;100.00;96518.91;5010099;28;20057;-39
2023/09/18 02:21:21;;;;;;;3.85;1.77;;;20.90;99.90;;;20.73;100.00;96528.66;5012770;28;20060;-39
2023/09/18 02:23:53;;;;;;;4.05;1.95;;;20.80;99.90;;;20.54;100.00;96546.38;5011499;28;20508;-38
2023/09/18 02:26:19;;;;;;;4.78;2.25;;;20.60;99.90;;;20.36;100.00;96537.34;5011190;28;20060;-39
2023/09/18 02:28:45;;;;;;;3.22;1.83;;;20.40;99.90;;;20.12;100.00;96543.91;5010437;28;20041;-39
2023/09/18 02:31:11;;;;;;;6.53;2.28;;;20.20;99.90;;;20.11;100.00;96554.75;5010945;28;20057;-39
2023/09/18 02:33:38;;;;;;;8.05;2.45;;;20.10;99.90;;;20.02;100.00;96562.59;5010169;28;20158;-40
2023/09/18 02:36:04;;;;;;;7.15;2.20;;;20.10;99.90;;;19.91;100.00;96553.84;5009969;28;20072;-39
2023/09/18 02:38:30;;;;;;;11.02;2.20;;;19.90;99.90;;;19.80;100.00;96563.66;5015749;28;20172;-39
2023/09/18 02:40:56;;;;;;;6.95;2.63;;;19.80;99.90;;;19.77;100.00;96576.44;5013020;28;20025;-39
2023/09/18 02:43:23;;;;;;;3.85;2.03;;;19.80;99.90;;;19.71;100.00;96579.63;5016021;28;20025;-39
2023/09/18 02:45:50;;;;;;;5.85;2.30;;;19.70;99.90;;;19.65;100.00;96581.03;5011933;28;20653;-39
2023/09/18 02:48:16;;;;;;;8.60;2.28;;;19.70;99.90;;;19.64;100.00;96580.16;5016530;28;21129;-39
2023/09/18 02:50:41;;;;;;;10.68;2.65;;;19.60;99.90;;;19.64;100.00;96587.34;4998075;28;20034;-39
2023/09/18 02:53:17;;;;;;;11.45;2.45;;;19.60;99.90;;;19.63;100.00;96588.31;5014453;28;20033;-38
2023/09/18 02:55:43;;;;;;;13.15;2.35;;;19.60;99.90;;;19.61;100.00;96583.13;5012760;28;20402;-39
2023/09/18 02:58:10;;;;;;;11.10;2.65;;;19.60;99.90;;;19.55;100.00;96569.41;5015077;28;20025;-39
2023/09/18 03:00:43;;;;;;;6.03;2.40;;;19.60;99.90;;;19.53;100.00;96569.53;5014144;28;20365;-38
2023/09/18 03:03:10;;;;;;;12.70;2.65;;;19.50;99.90;;;19.46;100.00;96571.06;5017321;28;20029;-40
2023/09/18 03:05:36;;;;;;;11.48;2.55;;;19.50;99.90;;;19.41;100.00;96587.47;5012026;28;20056;-39
2023/09/18 03:08:02;;;;;;;9.32;2.58;;;19.40;99.90;;;19.36;100.00;96573.69;5014886;28;20160;-39
2023/09/18 03:10:32;;;;;;;5.45;2.10;;;19.40;99.90;;;19.32;100.00;96590.94;5012137;28;20069;-40
2023/09/18 03:12:58;;;;;;;10.02;2.30;;;19.40;99.90;;;19.22;100.00;96590.91;5012208;28;20299;-41
2023/09/18 03:15:24;;;;;;;6.90;2.30;;;19.30;99.90;;;19.13;100.00;96581.00;5013894;28;20229;-39
2023/09/18 03:17:51;;;;;;;7.97;2.38;;;19.20;99.90;;;19.01;100.00;96569.50;5014206;28;20053;-40
2023/09/18 03:20:16;;;;;;;9.45;2.22;;;19.10;99.90;;;18.95;100.00;96570.03;5010690;28;20041;-39
2023/09/18 03:22:42;;;;;;;11.30;1.80;;;19.00;99.90;;;18.89;100.00;96573.19;5013159;28;20057;-39
2023/09/18 03:25:08;;;;;;;7.78;1.70;;;18.90;99.90;;;18.84;100.00;96575.41;5016111;28;20041;-40
2023/09/18 03:27:34;;;;;;;7.15;2.03;;;18.90;99.90;;;18.77;100.00;96574.19;5009502;28;20073;-39
2023/09/18 03:29:59;;;;;;;5.57;2.22;;;18.80;99.90;;;18.71;100.00;96578.22;5014849;28;20492;-40
2023/09/18 03:32:25;;;;;;;6.85;1.92;;;18.70;99.90;;;18.67;100.00;96585.63;5013805;28;20095;-38
2023/09/18 03:34:51;;;;;;;4.63;1.80;;;18.70;99.90;;;18.64;100.00;96593.06;5014318;28;20068;-39
2023/09/18 03:37:17;;;;;;;4.03;1.83;;;18.70;99.90;;;18.60;100.00;96605.81;5014256;28;20036;-40
2023/09/18 03:39:43;;;;;;;4.85;1.65;;;18.70;99.90;;;18.62;100.00;96609.19;5012695;28;20461;-40
2023/09/18 03:42:09;;;;;;;6.60;1.80;;;18.60;99.90;;;18.63;100.00;96607.41;5011887;28;20694;-39
2023/09/18 03:44:35;;;;;;;6.88;1.98;;;18.70;99.90;;;18.61;100.00;96618.19;5011797;28;20049;-39
2023/09/18 03:47:01;;;;;;;4.30;1.60;;;18.70;99.90;;;18.63;100.00;96640.28;5011217;28;20479;-39
2023/09/18 03:49:27;;;;;;;3.17;1.60;;;18.70;99.90;;;18.68;100.00;96662.13;5014261;28;20037;-39
2023/09/18 03:51:53;;;;;;;3.58;1.77;;;18.70;99.90;;;18.75;100.00;96689.16;5017644;28;20045;-39
2023/09/18 03:54:19;;;;;;;7.90;2.40;;;18.80;99.90;;;18.81;100.00;96688.72;5012656;28;20033;-40
2023/09/18 03:56:46;;;;;;;7.75;2.13;;;18.90;99.90;;;18.89;100.00;96702.25;5010690;28;20123;-39
2023/09/18 03:59:12;;;;;;;6.50;1.80;;;18.90;99.90;;;18.97;100.00;96704.34;5014359;28;20519;-39
2023/09/18 04:01:38;;;;;;;9.15;2.40;;;19.00;99.90;;;18.98;100.00;96700.66;5014929;28;20029;-38
2023/09/18 04:04:04;;;;;;;4.18;1.75;;;19.10;99.90;;;19.11;100.00;96705.84;5013772;28;20524;-39
2023/09/18 04:06:42;;;;;;;3.92;1.63;;;19.10;99.90;;;19.20;100.00;96714.94;5012059;28;20111;-39
2023/09/18 04:09:08;;;;;;;8.25;1.98;;;19.20;99.90;;;19.24;100.00;96706.53;5010575;28;20033;-38
2023/09/18 04:11:35;;;;;;;5.20;2.13;;;19.20;99.90;;;19.29;100.00;96699.97;5008895;28;20436;-39
2023/09/18 04:14:01;;;;;;;6.38;1.80;;;19.30;99.90;;;19.28;100.00;96688.44;5011668;28;20032;-39
2023/09/18 04:16:37;;;;;;;10.77;2.13;;;19.30;99.90;;;19.27;100.00;96682.25;5013139;28;20504;-39
2023/09/18 04:19:03;;;;;;;8.18;2.20;;;19.30;99.90;;;19.25;100.00;96686.00;5009918;28;20112;-39
2023/09/18 04:21:29;;;;;;;6.63;1.90;;;19.30;99.90;;;19.22;100.00;96675.56;5014948;28;20030;-38
2023/09/18 04:23:57;;;;;;;11.73;2.63;;;19.30;99.90;;;19.20;100.00;96661.47;5012414;28;20037;-39
2023/09/18 04:26:30;;;;;;;4.45;1.80;;;19.20;99.90;;;19.14;100.00;96656.66;5012970;28;20075;-39
2023/09/18 04:28:57;;;;;;;4.28;1.88;;;19.20;99.90;;;19.05;100.00;96648.41;5013979;28;20025;-38
2023/09/18 04:31:23;;;;;;;7.68;2.30;;;19.10;99.90;;;18.99;100.00;96646.28;5012530;28;20452;-39
2023/09/18 04:33:49;;;;;;;4.97;2.08;;;19.00;99.90;;;18.92;100.00;96621.03;5013339;28;20049;-39
2023/09/18 04:36:15;;;;;;;5.10;2.03;;;19.00;99.90;;;18.88;100.00;96619.59;5013398;28;20080;-39
2023/09/18 04:38:41;;;;;;;5.93;2.40;;;18.90;99.90;;;18.86;100.00;96579.66;5011467;28;20041;-39
2023/09/18 04:41:07;;;;;;;5.22;2.10;;;18.90;99.90;;;18.84;100.00;96554.91;5009348;28;20038;-39
2023/09/18 04:43:34;;;;;;;7.30;2.47;;;18.90;99.90;;;18.80;100.00;96581.94;5013417;28;20748;-38
2023/09/18 04:46:04;;;;;;;7.43;1.95;;;18.90;99.90;;;18.78;100.00;96590.09;5014720;28;20021;-39
2023/09/18 04:48:29;;;;;;;4.20;1.95;;;18.80;99.90;;;18.73;100.00;96575.44;5000694;28;20296;-38
2023/09/18 04:50:56;;;;;;;4.68;2.22;;;18.80;99.90;;;18.68;100.00;96563.31;5005863;28;20445;-39
2023/09/18 04:53:21;;;;;;;5.65;2.25;;;18.70;99.90;;;18.64;100.00;96571.69;5004292;28;20116;-39
2023/09/18 04:55:49;;;;;;;5.05;2.20;;;18.70;99.90;;;18.62;100.00;96576.31;5010552;28;20040;-39
2023/09/18 04:58:15;;;;;;;10.90;2.15;;;18.70;99.90;;;18.59;100.00;96585.44;5012837;28;20041;-40
2023/09/18 05:00:41;;;;;;;8.48;2.58;;;18.70;99.90;;;18.61;100.00;96595.97;5010150;28;20144;-39
2023/09/18 05:03:08;;;;;;;4.30;2.00;;;18.70;99.90;;;18.55;100.00;96588.47;5008752;28;20037;-37
2023/09/18 05:05:34;;;;;;;5.18;2.17;;;18.70;99.90;;;18.63;100.00;96610.06;5009936;28;20259;-38
2023/09/18 05:08:07;;;;;;;7.07;2.35;;;18.70;99.90;;;18.61;100.00;96583.47;5004763;28;20033;-38
2023/09/18 05:10:37;;;;;;;;;;;18.70;99.90;;;18.60;100.00;96580.94;5009672;28;20021;-38
2023/09/18 05:13:03;;;;;;;9.63;2.15;;;18.70;99.90;;;18.59;100.00;96571.22;5010044;28;20156;-38
2023/09/18 05:15:30;;;;;;;4.43;2.15;;;18.70;99.90;;;18.63;100.00;96572.69;5013060;28;20040;-37
2023/09/18 05:17:58;;;;;;;5.28;2.20;;;18.70;99.90;;;18.66;100.00;96588.44;5013239;28;20063;-37
2023/09/18 05:20:26;;;;;;;7.40;2.38;;;18.70;99.90;;;18.67;100.00;96598.16;5011697;28;20092;-38
2023/09/18 05:22:55;;;;;;;5.15;2.22;;;18.70;99.90;;;18.64;100.00;96601.06;5009229;28;20029;-37
2023/09/18 05:25:23;;;;;;;8.90;2.53;;;18.70;99.90;;;18.73;100.00;96628.84;5007854;28;20029;-38
2023/09/18 05:27:55;;;;;;;5.75;2.05;;;18.80;99.90;;;18.74;100.00;96633.22;5018533;28;20039;-38
2023/09/18 05:30:28;;;;;;;9.00;2.50;;;18.80;99.90;;;18.83;100.00;96622.66;5009235;28;20064;-38
2023/09/18 05:32:55;;;;;;;11.82;2.58;;;18.90;99.90;;;18.88;100.00;96615.09;5010458;28;20053;-39
2023/09/18 05:35:21;;;;;;;6.40;2.30;;;18.90;99.90;;;18.94;100.00;96602.22;5011246;28;20072;-38
2023/09/18 05:37:47;;;;;;;11.82;2.47;;;19.00;99.90;;;19.01;100.00;96619.44;5012149;28;20056;-40
2023/09/18 05:40:13;;;;;;;6.78;2.58;;;19.10;99.90;;;19.06;100.00;96623.41;5011653;28;20489;-38
2023/09/18 05:42:45;;;;;;;6.82;1.98;;;19.10;99.90;;;19.09;100.00;96622.28;5012973;28;20052;-39
2023/09/18 05:45:13;;;;;;;7.47;2.60;;;19.10;99.90;;;19.10;100.00;96624.00;5010744;28;20477;-41
2023/09/18 05:47:39;;;;;;;5.18;2.05;;;19.10;99.90;;;19.12;100.00;96632.72;5013644;28;20414;-38
2023/09/18 05:50:09;;;;;;;8.23;2.00;;;19.10;99.90;;;19.09;100.00;96627.63;5010084;28;20068;-38
2023/09/18 05:52:35;;;;;;;7.03;2.00;;;19.10;99.90;;;19.08;100.00;96624.13;5011166;28;20409;-38
2023/09/18 05:55:06;;;;;;;8.68;2.10;;;19.10;99.90;;;19.07;100.00;96617.06;5002841;28;20129;-38
2023/09/18 05:57:32;;;;;;;8.65;2.60;;;19.10;99.90;;;19.06;100.00;96603.84;5007583;28;20497;-39
2023/09/18 05:59:58;;;;;;;6.47;2.00;;;19.10;99.90;;;19.09;100.00;96600.91;5006921;28;20041;-40
2023/09/18 06:02:27;;;;;;;7.78;2.35;;;19.20;99.90;;;19.16;100.00;96602.09;5008123;28;20477;-37
2023/09/18 06:04:57;;;;;;;7.32;2.15;;;19.20;99.90;;;19.18;100.00;96610.81;5010037;28;20025;-38
2023/09/18 06:07:24;;;;;;;8.90;2.22;;;19.20;99.90;;;19.19;100.00;96607.19;5002171;28;20029;-37
2023/09/18 06:09:50;;;;;;;3.95;1.75;;;19.20;99.90;;;19.22;100.00;96603.38;5006141;28;20493;-37
2023/09/18 06:12:16;;;;;;;9.55;1.95;;;19.30;99.90;;;19.10;100.00;96578.56;5012026;28;20040;-38
2023/09/18 06:14:42;;;;;;;3.90;2.03;;;19.30;99.90;;;19.20;100.00;96587.50;5010348;28;20091;-39
2023/09/18 06:17:09;;;;;;;3.88;1.85;;;19.30;99.90;;;19.18;100.00;96593.94;5007334;28;20038;-39
2023/09/18 06:19:35;;;;;;;6.85;2.00;;;19.20;99.90;;;19.11;100.00;96590.94;5006627;28;20412;-37
2023/09/18 06:22:01;;;;;;;5.50;2.10;;;19.20;99.90;;;19.08;100.00;96591.22;5007131;28;20026;-39
2023/09/18 06:24:26;;;;;;;6.15;1.88;;;19.10;99.90;;;19.04;100.00;96600.44;5012555;28;20037;-38
2023/09/18 06:26:53;;;;;;;4.85;1.73;;;19.10;99.90;;;18.92;100.00;96591.66;5010433;28;20608;-37
2023/09/18 06:29:19;;;;;;;6.97;1.90;;;19.10;99.90;;;19.00;100.00;96607.03;5008723;28;20037;-38
2023/09/18 06:31:45;;;;;;;6.82;2.05;;;19.10;99.90;;;19.00;100.00;96607.03;5008917;28;20179;-39
2023/09/18 06:34:10;;;;;;;6.82;2.80;;;19.10;99.90;;;19.02;100.00;96613.97;5010223;28;20497;-40
2023/09/18 06:36:37;;;;;;;8.45;2.45;;;19.10;99.90;;;19.03;100.00;96610.28;5011290;28;20044;-39
2023/09/18 06:39:03;;;;;;;5.07;2.10;;;19.10;99.90;;;19.04;100.00;96609.34;5013046;28;20036;-38
2023/09/18 06:41:29;;;;;;;10.15;2.40;;;19.10;99.90;;;19.07;100.00;96608.22;5007829;28;20418;-38
2023/09/18 06:43:54;;;;;;;9.63;2.20;;;19.10;99.90;;;19.07;100.00;96600.19;5011936;28;20125;-40
2023/09/18 06:46:20;;;;;;;6.15;1.73;;;19.10;99.90;;;19.06;100.00;96617.22;5010203;28;20033;-41
2023/09/18 06:48:49;;;;;;;6.38;2.20;;;19.10;99.90;;;19.05;100.00;96626.19;5013379;28;20030;-40
2023/09/18 06:51:16;;;;;;;5.32;1.83;;;19.10;99.90;;;19.05;100.00;96626.19;5004266;28;20410;-39
2023/09/18 06:53:43;;;;;;;3.83;1.92;;;19.10;99.90;;;19.06;100.00;96630.59;5005759;28;20034;-40
2023/09/18 06:56:09;;;;;;;5.07;2.03;;;19.10;99.90;;;19.05;100.00;96629.72;5009916;28;20398;-39
2023/09/18 06:58:35;;;;;;;4.93;2.20;;;19.10;99.90;;;18.89;100.00;96608.75;5010716;28;20084;-39
2023/09/18 07:01:01;;;;;;;5.70;1.90;;;19.10;99.90;;;18.97;100.00;96634.00;5012399;28;20506;-39
2023/09/18 07:03:26;;;;;;;6.18;2.03;;;19.10;99.90;;;18.94;100.00;96623.59;5013203;28;20033;-39
2023/09/18 07:05:52;;;;;;;6.32;2.17;;;19.10;99.90;;;18.95;100.00;96636.81;5008646;28;20044;-38
2023/09/18 07:08:22;;;;;;;7.43;1.77;;;19.10;99.90;;;19.03;100.00;96636.19;5007180;28;20022;-38
2023/09/18 07:10:50;;;;;;;6.45;1.67;;;19.10;99.90;;;19.13;100.00;96623.75;5010647;28;20091;-37
2023/09/18 07:13:16;;;;;;;7.85;1.50;;;19.20;99.90;;;19.28;100.00;96626.94;5010046;28;20099;-37
2023/09/18 07:15:41;;;;;;;7.03;1.35;;;19.30;99.90;;;19.40;100.00;96611.69;5028330;28;20104;-39
2023/09/18 07:18:07;;;;;;;7.18;2.00;;;19.50;99.90;;;19.55;100.00;96622.91;5009892;28;20037;-38
2023/09/18 07:20:33;;;;;;;3.88;1.50;;;19.60;99.90;;;19.64;100.00;96614.09;5012157;28;20457;-38
2023/09/18 07:22:59;;;;;;;3.55;1.42;;;19.70;99.90;;;19.72;100.00;96608.06;5009943;28;20034;-39
2023/09/18 07:25:24;;;;;;;11.90;2.35;;;19.80;99.90;;;19.82;100.00;96623.22;5006975;28;20095;-39
2023/09/18 07:27:50;;;;;;;3.47;1.13;;;19.90;99.90;;;19.84;100.00;96620.41;5004350;28;20029;-38
2023/09/18 07:30:16;;;;;;;4.88;1.60;;;19.90;99.90;;;19.80;100.00;96611.81;5012339;28;20055;-38
2023/09/18 07:32:43;;;;;;;3.78;1.17;;;19.90;99.90;;;19.83;100.00;96624.09;5015039;28;20035;-38
2023/09/18 07:35:09;;;;;;;4.10;1.00;;;19.90;99.90;;;19.76;100.00;96620.25;5011836;28;20053;-39
2023/09/18 07:37:35;;;;;;;2.63;1.20;;;19.90;99.90;;;19.79;100.00;96625.31;5012678;28;20061;-38
2023/09/18 07:40:03;;;;;;;7.20;1.45;;;19.90;99.90;;;19.77;100.00;96637.97;5009292;28;20072;-39
2023/09/18 07:42:28;;;;;;;5.30;1.10;;;19.90;99.90;;;19.83;100.00;96643.66;5012038;28;20025;-40
2023/09/18 07:44:54;;;;;;;4.00;1.10;;;19.90;99.90;;;19.91;100.00;96655.53;5014592;28;20413;-37
2023/09/18 07:47:20;;;;;;;2.60;0.90;;;20.00;99.90;;;19.98;100.00;96660.19;5017126;28;20110;-38
2023/09/18 07:49:47;;;;;;;7.80;1.30;;;20.00;99.90;;;20.02;100.00;96677.69;5015360;28;20122;-39
2023/09/18 07:52:13;;;;;;;2.03;1.00;;;20.10;99.90;;;20.14;100.00;96678.44;5013346;28;20452;-40
2023/09/18 07:54:38;;;;;;;2.30;1.10;;;20.20;99.90;;;20.25;100.00;96674.84;5007423;28;20029;-37
2023/09/18 07:57:04;;;;;;;3.75;1.20;;;20.30;99.90;;;20.18;100.00;96679.88;5009532;28;20033;-38
2023/09/18 07:59:30;;;;;;;3.13;1.40;;;20.30;99.90;;;20.20;100.00;96685.09;5012213;28;20041;-38
2023/09/18 08:01:56;;;;;;;3.13;1.00;;;20.30;99.90;;;20.28;100.00;96682.59;5013339;28;20025;-37
2023/09/18 08:04:21;;;;;;;2.55;1.10;;;20.30;99.90;;;20.30;100.00;96687.84;5009480;28;20036;-38
2023/09/18 08:06:47;;;;;;;2.10;1.10;;;20.40;99.90;;;20.35;100.00;96689.13;5010745;28;20026;-39
2023/09/18 08:09:15;;;;;;;2.95;1.00;;;20.40;99.90;;;20.43;100.00;96698.31;5013088;28;20448;-38
2023/09/18 08:11:42;;;;;;;3.83;0.90;;;20.50;99.90;;;20.46;100.00;96703.38;5013152;28;20033;-38
2023/09/18 08:14:09;;;;;;;2.03;1.20;;;20.50;99.90;;;20.47;100.00;96715.78;5010427;28;21007;-39
2023/09/18 08:16:38;;;;;;;1.85;1.00;;;20.50;99.90;;;20.36;100.00;96714.88;5015403;28;20116;-39
2023/09/18 08:19:04;;;;;;;1.77;0.80;;;20.50;99.90;;;20.30;100.00;96726.16;5013287;28;20374;-39
2023/09/18 08:21:30;;;;;;;3.38;0.85;;;20.40;99.90;;;20.24;100.00;96725.81;5005178;28;20037;-38
2023/09/18 08:23:55;;;;;;;2.75;0.88;;;20.30;99.90;;;20.18;100.00;96724.53;5006830;28;20021;-40
2023/09/18 08:26:22;;;;;;;3.05;0.73;;;20.30;99.90;;;20.17;100.00;96731.72;5012480;28;20453;-37
2023/09/18 08:28:48;;;;;;;3.35;0.90;;;20.30;99.90;;;20.14;100.00;96760.59;5012236;28;20525;-37
2023/09/18 08:31:16;;;;;;;3.60;1.10;;;20.30;99.90;;;20.15;100.00;96765.81;5002164;28;20037;-40
2023/09/18 08:33:43;;;;;;;2.42;0.70;;;20.20;99.90;;;20.11;100.00;96787.63;5021247;28;20169;-38
2023/09/18 08:36:09;;;;;;;2.47;0.90;;;20.20;99.90;;;20.04;100.00;96779.25;5004615;28;20147;-37
2023/09/18 08:38:34;;;;;;;3.97;1.10;;;20.10;99.90;;;20.06;100.00;96768.41;5011474;28;20073;-37
2023/09/18 08:41:00;;;;;;;3.83;1.10;;;20.10;99.90;;;20.00;100.00;96757.25;5004008;28;20143;-37
2023/09/18 08:43:26;;;;;;;3.08;1.08;;;20.10;99.90;;;19.87;100.00;96763.78;5010891;28;20404;-36
2023/09/18 08:45:53;;;;;;;3.15;1.10;;;20.00;99.90;;;19.77;100.00;96767.22;5012526;28;20029;-39
2023/09/18 08:48:21;;;;;;;3.75;1.00;;;19.90;99.90;;;19.70;100.00;96776.72;5007994;28;20056;-39
2023/09/18 08:50:48;;;;;;;4.35;1.10;;;19.80;99.90;;;19.53;100.00;96762.09;5008486;28;20031;-39
2023/09/18 08:53:14;;;;;;;2.75;0.90;;;19.70;99.90;;;19.45;100.00;96772.56;5006260;28;20044;-38
2023/09/18 08:55:40;;;;;;;2.25;1.15;;;19.60;99.90;;;19.34;100.00;96764.59;5011996;28;20029;-38
2023/09/18 08:58:07;;;;;;;3.95;0.75;;;19.50;99.90;;;19.24;100.00;96757.34;5014515;28;20029;-38
2023/09/18 09:00:35;;;;;;;6.20;0.98;;;19.40;99.90;;;19.14;100.00;96759.06;5016692;28;20032;-40
2023/09/18 09:03:04;;;;;;;3.60;1.33;;;19.20;99.90;;;19.00;100.00;96757.50;5009763;28;20076;-38
2023/09/18 09:05:30;;;;;;;4.80;1.17;;;19.10;99.90;;;18.94;100.00;96773.19;5013279;28;20026;-39
2023/09/18 09:07:56;;;;;;;1.95;1.17;;;19.00;99.90;;;18.87;100.00;96779.00;5009558;28;20079;-39
2023/09/18 09:10:22;;;;;;;1.15;0.90;;;19.00;99.90;;;18.88;100.00;96780.72;5011471;28;20553;-39
2023/09/18 09:13:02;;;;;;;2.72;0.98;;;18.90;99.90;;;18.82;100.00;96780.38;5022961;28;20552;-38
2023/09/18 09:15:46;;;;;;;4.28;1.10;;;18.90;99.90;;;18.76;100.00;96786.19;5008820;28;20364;-37
2023/09/18 09:18:12;;;;;;;3.25;1.23;;;18.90;99.90;;;18.80;100.00;96783.13;5013386;28;20040;-38
2023/09/18 09:20:39;;;;;;;6.05;1.38;;;18.80;99.90;;;18.71;100.00;96770.50;5010489;28;21788;-39
2023/09/18 09:23:09;;;;;;;5.05;0.98;;;18.80;99.90;;;18.68;100.00;96768.06;5015026;28;20037;-38
2023/09/18 09:25:35;;;;;;;4.15;1.02;;;18.70;99.90;;;18.60;100.00;96775.88;5012974;28;20540;-38
2023/09/18 09:28:04;;;;;;;1.98;1.08;;;18.70;99.90;;;18.60;100.00;96781.22;5010136;28;20099;-39
2023/09/18 09:30:32;;;;;;;4.68;1.67;;;18.70;99.90;;;18.59;100.00;96772.34;5014507;28;20715;-38
2023/09/18 09:32:59;;;;;;;1.77;0.98;;;18.70;99.90;;;18.56;100.00;96791.28;5008347;28;20052;-38
2023/09/18 09:35:34;;;;;;;3.33;1.10;;;18.60;99.90;;;18.60;100.00;96786.53;5011905;28;20076;-39
2023/09/18 09:38:07;;;;;;;6.82;1.38;;;18.60;99.90;;;18.54;100.00;96795.03;5011937;28;20037;-39
2023/09/18 09:40:33;;;;;;;4.65;1.08;;;18.60;99.90;;;18.49;100.00;96771.38;5013879;28;20048;-38
2023/09/18 09:43:02;;;;;;;2.63;0.90;;;18.60;99.90;;;18.52;100.00;96779.16;5010610;28;20045;-38
2023/09/18 09:45:35;;;;;;;1.98;1.10;;;18.60;99.90;;;18.56;100.00;96763.75;5011383;28;20021;-38
2023/09/18 09:48:07;;;;;;;2.85;1.35;;;18.70;99.90;;;18.62;100.00;96757.91;5011198;28;20057;-36
2023/09/18 09:50:48;;;;;;;5.22;1.00;;;18.80;99.90;;;18.81;100.00;96776.84;5014048;28;20034;-37
2023/09/18 09:53:14;;;;;;;1.63;0.98;;;18.90;99.90;;;18.87;100.00;96754.97;5014667;28;20037;-36
2023/09/18 09:55:40;;;;;;;2.13;1.00;;;19.00;99.90;;;19.05;100.00;96771.34;5017355;28;20029;-36
2023/09/18 09:58:10;;;;;;;3.88;1.00;;;19.10;99.90;;;19.15;100.00;96759.88;5014381;28;20063;-36
2023/09/18 10:00:49;;;;;;;4.53;1.05;;;19.20;99.90;;;19.24;100.00;96765.34;5013222;28;20052;-37
2023/09/18 10:03:18;;;;;;;1.90;1.05;;;19.30;99.90;;;19.37;100.00;96762.50;5010931;28;20037;-37
2023/09/18 10:05:53;;;;;;;3.67;1.13;;;19.50;99.90;;;19.57;100.00;96765.34;5007434;28;20076;-37
2023/09/18 10:08:23;;;;;;;3.65;1.13;;;19.70;99.90;;;19.79;100.00;96769.78;5007467;28;20037;-37
2023/09/18 10:10:51;;;;;;;5.95;1.33;;;19.90;99.90;;;19.94;100.00;96763.13;5025668;28;20699;-37
2023/09/18 10:13:28;;;;;;;8.35;1.35;;;20.00;99.90;;;20.02;100.00;96760.63;5011207;28;20037;-37